Time;durP1;ratioP1;P1;durP2;ratioP2;P2;SDS_P1;SDS_P2;PMS_P1;PMS_P2;Temp;Humidity;BMP_temperature;BMP_pressure;BME280_temperature;BME280_humidity;BME280_pressure;Samples;Min_cycle;Max_cycle;Signal;HPM_P1;HPM_P2
2022/10/24 00:00:04;;;;;;;11.88;2.58;;;;;;;12.59;100.00;92825.84;2097636;28;20025;-70
2022/10/24 00:01:09;;;;;;;6.97;1.55;;;;;;;12.56;100.00;92824.81;2088821;28;20040;-69
2022/10/24 00:02:10;;;;;;;10.77;2.30;;;;;;;12.55;100.00;92825.22;2089251;28;20021;-69
2022/10/24 00:03:12;;;;;;;11.02;2.28;;;;;;;12.52;100.00;92832.22;2097289;28;20020;-70
2022/10/24 00:04:13;;;;;;;11.77;2.28;;;;;;;12.51;100.00;92838.78;2083473;28;20750;-70
2022/10/24 00:05:14;;;;;;;8.48;2.33;;;;;;;12.47;100.00;92843.50;2097576;28;20031;-70
2022/10/24 00:06:16;;;;;;;9.82;1.75;;;;;;;12.46;100.00;92831.25;2097474;28;20472;-70
2022/10/24 00:07:17;;;;;;;7.85;1.88;;;;;;;12.43;100.00;92839.44;2097639;28;20451;-69
2022/10/24 00:08:18;;;;;;;11.90;3.25;;;;;;;12.43;100.00;92826.78;2097461;28;20063;-69
2022/10/24 00:09:19;;;;;;;8.82;1.88;;;;;;;12.44;100.00;92832.88;2094290;28;20033;-69
2022/10/24 00:10:20;;;;;;;9.45;1.67;;;;;;;12.43;100.00;92815.31;2097634;28;20387;-70
2022/10/24 00:11:25;;;;;;;9.48;1.75;;;;;;;12.46;100.00;92817.09;2088672;28;20060;-69
2022/10/24 00:12:26;;;;;;;13.02;2.00;;;;;;;12.50;100.00;92810.44;2089312;28;20031;-70
2022/10/24 00:13:27;;;;;;;10.65;1.90;;;;;;;12.53;100.00;92806.16;2097051;28;20040;-69
2022/10/24 00:14:29;;;;;;;7.60;2.20;;;;;;;12.57;100.00;92804.84;2093170;28;20054;-70
2022/10/24 00:15:30;;;;;;;9.88;1.90;;;;;;;12.56;100.00;92814.09;2089843;28;20607;-69
2022/10/24 00:16:31;;;;;;;6.70;1.70;;;;;;;12.58;100.00;92811.69;2096793;28;20045;-70
2022/10/24 00:17:32;;;;;;;7.45;1.88;;;;;;;12.56;100.00;92824.81;2097552;28;20085;-69
2022/10/24 00:18:34;;;;;;;12.18;2.65;;;;;;;12.58;100.00;92816.31;2097465;28;20062;-70
2022/10/24 00:19:35;;;;;;;10.38;1.88;;;;;;;12.48;100.00;92823.53;2094654;28;20500;-69
2022/10/24 00:20:37;;;;;;;7.35;2.20;;;;;;;12.46;100.00;92815.16;2095929;28;20090;-70
2022/10/24 00:21:38;;;;;;;8.00;1.90;;;;;;;12.50;100.00;92815.81;2097497;28;20355;-69
2022/10/24 00:22:38;;;;;;;12.88;2.33;;;;;;;12.58;100.00;92817.06;2097365;28;20112;-70
2022/10/24 00:23:40;;;;;;;8.48;2.50;;;;;;;12.52;100.00;92812.69;2097099;28;20020;-70
2022/10/24 00:24:41;;;;;;;11.95;2.33;;;;;;;12.58;100.00;92825.09;2096021;28;20028;-70
2022/10/24 00:25:42;;;;;;;9.20;2.30;;;;;;;12.47;100.00;92821.31;2089165;28;20360;-70
2022/10/24 00:26:44;;;;;;;8.68;2.78;;;;;;;12.43;100.00;92834.09;2095331;28;20367;-70
2022/10/24 00:27:45;;;;;;;14.68;2.80;;;;;;;12.50;100.00;92831.13;2097374;28;20060;-70
2022/10/24 00:28:45;;;;;;;10.35;2.45;;;;;;;12.55;100.00;92833.25;2097348;28;20040;-69
2022/10/24 00:29:46;;;;;;;12.63;2.50;;;;;;;12.48;100.00;92838.88;2097255;28;20020;-70
2022/10/24 00:30:51;;;;;;;9.27;1.70;;;;;;;12.60;100.00;92836.16;2091316;28;20036;-70
2022/10/24 00:31:52;;;;;;;10.15;2.15;;;;;;;12.69;100.00;92835.47;2097425;28;20463;-69
2022/10/24 00:32:53;;;;;;;11.70;2.20;;;;;;;12.74;100.00;92842.22;2097340;28;20033;-70
2022/10/24 00:33:55;;;;;;;9.15;2.00;;;;;;;12.63;100.00;92844.50;2097068;28;20029;-69
2022/10/24 00:34:56;;;;;;;10.07;2.22;;;;;;;12.59;100.00;92847.31;2097310;28;20370;-70
2022/10/24 00:35:57;;;;;;;7.22;2.08;;;;;;;12.57;100.00;92842.38;2095036;28;20056;-70
2022/10/24 00:36:58;;;;;;;6.28;2.40;;;;;;;12.69;100.00;92846.22;2097286;28;20032;-70
2022/10/24 00:38:01;;;;;;;9.30;1.88;;;;;;;12.72;100.00;92834.59;2097332;28;20039;-70
2022/10/24 00:39:02;;;;;;;9.23;2.00;;;;;;;12.66;100.00;92835.59;2088310;28;20048;-69
2022/10/24 00:40:05;;;;;;;7.85;1.85;;;;;;;12.71;100.00;92840.41;2088357;28;20040;-69
2022/10/24 00:41:06;;;;;;;11.88;2.20;;;;;;;12.89;100.00;92831.75;2092574;28;20028;-70
2022/10/24 00:42:07;;;;;;;7.40;1.90;;;;;;;12.76;100.00;92843.25;2097408;28;20081;-69
2022/10/24 00:43:19;;;;;;;10.18;2.47;;;;;;;12.77;100.00;92841.34;2096718;28;20066;-69
2022/10/24 00:44:27;;;;;;;7.97;2.50;;;;;;;12.64;100.00;92841.38;2091490;28;20029;-69
2022/10/24 00:45:49;;;;;;;9.30;2.70;;;;;;;12.68;100.00;92838.59;2092786;28;20460;-70
2022/10/24 00:47:11;;;;;;;7.65;2.13;;;;;;;12.86;100.00;92841.41;2091369;28;20038;-70
2022/10/24 00:48:34;;;;;;;12.73;2.47;;;;;;;13.01;100.00;92855.06;2089269;28;20059;-70
2022/10/24 00:49:50;;;;;;;9.02;2.67;;;;;;;12.90;100.00;92849.31;2097166;28;20025;-69
2022/10/24 00:50:55;;;;;;;11.98;2.65;;;;;;;12.98;100.00;92853.25;2090170;28;20032;-69
2022/10/24 00:52:05;;;;;;;9.38;2.95;;;;;;;13.06;100.00;92863.31;2097099;28;20024;-70
2022/10/24 00:53:07;;;;;;;;;;;;;;;13.01;100.00;92847.03;2097483;28;20021;-69
2022/10/24 00:54:12;;;;;;;16.38;3.38;;;;;;;13.10;100.00;92849.78;2097401;28;20373;-69
2022/10/24 00:55:13;;;;;;;13.27;2.72;;;;;;;13.19;100.00;92841.03;2089308;28;20024;-69
2022/10/24 00:56:18;;;;;;;13.60;3.00;;;;;;;13.14;100.00;92847.72;2092475;28;20056;-71
2022/10/24 00:57:30;;;;;;;15.45;3.30;;;;;;;12.99;100.00;92844.75;2097233;28;20035;-70
2022/10/24 00:58:34;;;;;;;14.32;3.35;;;;;;;13.00;100.00;92843.59;2097122;28;20128;-70
2022/10/24 00:59:37;;;;;;;11.65;3.45;;;;;;;12.96;100.00;92839.53;2097218;28;20049;-70
2022/10/24 01:00:38;;;;;;;9.90;3.25;;;;;;;13.21;100.00;92825.97;2097275;28;20024;-69
2022/10/24 01:01:41;;;;;;;14.82;3.22;;;;;;;13.02;100.00;92819.75;2094905;28;20036;-71
2022/10/24 01:02:42;;;;;;;10.68;2.60;;;;;;;12.95;100.00;92835.34;2088956;28;20024;-69
2022/10/24 01:03:43;;;;;;;15.73;3.42;;;;;;;13.03;100.00;92850.75;2096647;28;20107;-69
2022/10/24 01:04:46;;;;;;;15.45;2.90;;;;;;;12.96;100.00;92852.97;2097043;28;20537;-69
2022/10/24 01:06:15;;;;;;;13.88;3.67;;;;;;;12.90;100.00;92855.44;2097087;28;20024;-70
2022/10/24 01:07:28;;;;;;;22.15;3.22;;;;;;;12.83;100.00;92851.06;2049662;28;20425;-71
2022/10/24 01:08:48;;;;;;;10.70;3.10;;;;;;;12.76;100.00;92869.34;2097040;28;20064;-71
2022/10/24 01:10:20;;;;;;;16.90;3.47;;;;;;;12.79;100.00;92877.28;2090671;28;20462;-69
2022/10/24 01:11:42;;;;;;;13.45;3.80;;;;;;;12.71;100.00;92867.97;2091258;28;20486;-69
2022/10/24 01:13:06;;;;;;;11.45;2.97;;;;;;;12.72;100.00;92849.94;2093024;28;20366;-70
2022/10/24 01:14:36;;;;;;;11.40;2.40;;;;;;;12.87;100.00;92844.84;2097003;28;20100;-71
2022/10/24 01:15:45;;;;;;;13.90;3.65;;;;;;;12.87;100.00;92829.50;2089241;28;20028;-69
2022/10/24 01:16:49;;;;;;;14.90;3.38;;;;;;;12.89;100.00;92837.84;2080851;28;20115;-70
2022/10/24 01:18:05;;;;;;;11.50;3.33;;;;;;;12.77;100.00;92838.66;2085242;28;20036;-70
2022/10/24 01:19:41;;;;;;;17.02;3.05;;;;;;;12.74;100.00;92828.81;2096918;28;20117;-70
2022/10/24 01:20:57;;;;;;;14.77;3.10;;;;;;;12.56;100.00;92848.19;2088862;28;20028;-71
2022/10/24 01:22:04;;;;;;;12.27;3.13;;;;;;;12.44;100.00;92844.34;2096781;28;20106;-68
2022/10/24 01:23:53;;;;;;;14.00;3.13;;;;;;;12.40;100.00;92843.72;2095002;28;20028;-69
2022/10/24 01:24:57;;;;;;;15.30;2.88;;;;;;;12.39;100.00;92855.63;2079357;28;20422;-69
2022/10/24 01:26:10;;;;;;;12.15;2.45;;;;;;;12.40;100.00;92851.75;2096993;28;20040;-70
2022/10/24 01:27:29;;;;;;;11.93;3.35;;;;;;;12.39;100.00;92865.59;2094747;28;20033;-69
2022/10/24 01:28:43;;;;;;;13.48;3.35;;;;;;;12.39;100.00;92861.00;2093877;28;20542;-69
2022/10/24 01:30:04;;;;;;;11.93;3.58;;;;;;;12.30;100.00;92864.34;2089175;28;20033;-70
2022/10/24 01:31:10;;;;;;;12.95;3.08;;;;;;;12.26;100.00;92861.03;2096953;28;20367;-70
2022/10/24 01:32:39;;;;;;;10.65;2.83;;;;;;;12.23;100.00;92863.81;2088623;28;20025;-70
2022/10/24 01:33:48;;;;;;;15.93;3.72;;;;;;;12.18;100.00;92869.72;2095918;28;20097;-70
2022/10/24 01:34:59;;;;;;;11.85;3.08;;;;;;;12.16;100.00;92856.00;2081892;28;20021;-70
2022/10/24 01:36:08;;;;;;;12.20;3.13;;;;;;;12.11;100.00;92859.97;2090303;28;20646;-69
2022/10/24 01:37:29;;;;;;;12.15;3.00;;;;;;;12.07;100.00;92862.00;2096837;28;20036;-69
2022/10/24 01:38:36;;;;;;;11.98;3.05;;;;;;;12.07;100.00;92876.16;2089051;28;20036;-70
2022/10/24 01:39:43;;;;;;;14.35;3.13;;;;;;;12.06;100.00;92877.34;2096809;28;20462;-69
2022/10/24 01:40:57;;;;;;;11.35;2.50;;;;;;;12.07;100.00;92878.84;2096949;28;20074;-68
2022/10/24 01:42:01;;;;;;;17.90;2.88;;;;;;;12.06;100.00;92885.38;2096755;28;20128;-68
2022/10/24 01:43:08;;;;;;;11.65;2.85;;;;;;;12.15;100.00;92883.97;2094453;28;20051;-68
2022/10/24 01:44:17;;;;;;;9.90;2.97;;;;;;;12.04;100.00;92887.00;2096419;28;20032;-69
2022/10/24 01:45:29;;;;;;;13.38;3.25;;;;;;;12.26;100.00;92879.78;2083699;28;20192;-68
2022/10/24 01:46:38;;;;;;;13.80;2.88;;;;;;;12.17;100.00;92866.28;2096800;28;20024;-68
2022/10/24 01:47:47;;;;;;;13.85;2.97;;;;;;;12.06;100.00;92869.28;2087674;28;20432;-69
2022/10/24 01:48:56;;;;;;;7.40;2.15;;;;;;;12.08;100.00;92866.19;2082832;28;20140;-69
2022/10/24 01:50:10;;;;;;;13.18;2.58;;;;;;;12.02;100.00;92865.97;2096628;28;20613;-70
2022/10/24 01:51:17;;;;;;;10.23;2.40;;;;;;;11.95;100.00;92860.84;2096779;28;20032;-70
2022/10/24 01:52:19;;;;;;;9.43;2.58;;;;;;;11.93;100.00;92852.50;2090318;28;20028;-69
2022/10/24 01:53:22;;;;;;;12.60;3.17;;;;;;;11.86;100.00;92847.38;2096250;28;20086;-70
2022/10/24 01:54:23;;;;;;;11.00;2.65;;;;;;;11.83;100.00;92837.50;2092474;28;20495;-69
2022/10/24 01:55:24;;;;;;;9.45;2.97;;;;;;;11.76;100.00;92835.75;2096829;28;20035;-69
2022/10/24 01:56:25;;;;;;;9.40;2.33;;;;;;;11.72;100.00;92845.06;2096596;28;20037;-69
2022/10/24 01:57:28;;;;;;;13.50;3.22;;;;;;;11.72;100.00;92837.03;2096758;28;20043;-70
2022/10/24 01:58:29;;;;;;;10.05;2.40;;;;;;;11.65;100.00;92848.00;2096691;28;20039;-70
2022/10/24 01:59:30;;;;;;;9.07;2.85;;;;;;;11.84;100.00;92844.34;2092899;28;20368;-70
2022/10/24 02:00:31;;;;;;;9.65;2.60;;;;;;;11.76;100.00;92840.38;2096693;28;20465;-70
2022/10/24 02:01:35;;;;;;;9.35;2.78;;;;;;;11.65;100.00;92851.41;2095264;28;20131;-69
2022/10/24 02:02:44;;;;;;;10.25;2.38;;;;;;;11.65;100.00;92843.38;2096588;28;20033;-69
2022/10/24 02:03:55;;;;;;;6.53;3.03;;;;;;;11.64;100.00;92847.25;2088924;28;20028;-69
2022/10/24 02:05:04;;;;;;;7.07;2.30;;;;;;;11.67;100.00;92837.59;2088023;28;20025;-70
2022/10/24 02:06:24;;;;;;;7.72;2.55;;;;;;;11.65;100.00;92848.75;2096584;28;20039;-70
2022/10/24 02:07:26;;;;;;;;;;;;;;;11.75;100.00;92841.56;2092295;28;20036;-69
2022/10/24 02:08:32;;;;;;;9.52;2.42;;;;;;;11.71;100.00;92849.69;2096911;28;19930;-70
2022/10/24 02:09:38;;;;;;;7.68;2.40;;;;;;;11.75;100.00;92858.38;2094498;28;20036;-69
2022/10/24 02:10:46;;;;;;;9.77;2.25;;;;;;;11.88;100.00;92850.34;2096363;28;20029;-70
2022/10/24 02:11:48;;;;;;;11.93;2.50;;;;;;;11.73;100.00;92857.31;2089956;28;20028;-69
2022/10/24 02:12:56;;;;;;;13.13;2.65;;;;;;;11.70;100.00;92860.84;2096608;28;20363;-70
2022/10/24 02:16:11;;;;;;;;;;;;;;;11.57;100.00;92852.81;2143050;27;21098;-68
2022/10/24 02:17:12;;;;;;;8.70;2.38;;;;;;;11.54;100.00;92843.69;2129544;27;19918;-68
2022/10/24 02:18:14;;;;;;;9.30;2.58;;;;;;;11.50;100.00;92844.97;2137990;27;20471;-68
2022/10/24 02:19:17;;;;;;;8.60;2.60;;;;;;;11.48;100.00;92840.06;2138063;27;20702;-68
2022/10/24 02:20:27;;;;;;;14.05;2.67;;;;;;;11.55;100.00;92855.16;2137742;27;20046;-68
2022/10/24 02:21:41;;;;;;;7.93;2.60;;;;;;;11.54;100.00;92853.66;2134058;27;20082;-68
2022/10/24 02:22:48;;;;;;;11.52;2.30;;;;;;;11.55;100.00;92839.84;2137737;27;20099;-68
2022/10/24 02:24:22;;;;;;;12.25;2.60;;;;;;;11.62;100.00;92838.88;2137545;27;20096;-67
2022/10/24 02:25:33;;;;;;;12.23;2.50;;;;;;;11.52;100.00;92839.94;2127929;27;20043;-70
2022/10/24 02:26:38;;;;;;;10.55;2.63;;;;;;;11.54;100.00;92837.59;2127361;27;20022;-68
2022/10/24 02:27:45;;;;;;;8.80;2.60;;;;;;;11.50;100.00;92845.75;2129322;27;20063;-67
2022/10/24 02:28:51;;;;;;;8.85;2.53;;;;;;;11.49;100.00;92835.44;2130634;27;20033;-69
2022/10/24 02:29:59;;;;;;;13.77;2.53;;;;;;;11.51;100.00;92822.41;2137779;27;20028;-68
2022/10/24 02:31:16;;;;;;;11.43;2.60;;;;;;;11.54;100.00;92822.28;2132144;27;20027;-68
2022/10/24 02:32:30;;;;;;;13.05;2.85;;;;;;;11.47;100.00;92822.50;2130776;27;20118;-68
2022/10/24 02:33:33;;;;;;;8.20;3.05;;;;;;;11.46;100.00;92822.94;2137334;27;20054;-68
2022/10/24 02:34:37;;;;;;;6.15;2.60;;;;;;;11.41;100.00;92820.78;2137824;27;20065;-68
2022/10/24 02:35:41;;;;;;;13.93;2.20;;;;;;;11.46;100.00;92825.63;2137534;27;20468;-68
2022/10/24 02:36:43;;;;;;;6.75;1.92;;;;;;;11.42;100.00;92833.75;2134272;27;20037;-68
2022/10/24 02:37:49;;;;;;;9.70;2.38;;;;;;;11.41;100.00;92834.16;2137771;27;20022;-68
2022/10/24 02:38:52;;;;;;;8.85;2.83;;;;;;;11.47;100.00;92838.56;2137750;27;20078;-68
2022/10/24 02:39:56;;;;;;;11.88;2.05;;;;;;;11.45;100.00;92837.47;2137741;27;20033;-67
2022/10/24 02:41:01;;;;;;;8.68;2.70;;;;;;;11.46;100.00;92831.72;2137740;27;20380;-67
2022/10/24 02:42:04;;;;;;;9.25;2.60;;;;;;;11.46;100.00;92831.72;2135835;27;20170;-70
2022/10/24 02:43:06;;;;;;;10.10;2.13;;;;;;;11.47;100.00;92832.47;2137476;27;20517;-71
2022/10/24 02:44:09;;;;;;;6.68;2.28;;;;;;;11.54;100.00;92832.22;2137786;27;20034;-70
2022/10/24 02:45:13;;;;;;;10.40;2.25;;;;;;;11.55;100.00;92828.41;2131176;27;20364;-70
2022/10/24 02:46:17;;;;;;;8.05;2.58;;;;;;;11.56;100.00;92829.88;2129855;27;20023;-70
2022/10/24 02:47:22;;;;;;;13.27;2.60;;;;;;;11.55;100.00;92841.78;2131358;27;20034;-68
2022/10/24 02:48:30;;;;;;;11.23;2.72;;;;;;;11.54;100.00;92842.94;2128425;27;20034;-67
2022/10/24 02:49:31;;;;;;;11.27;2.72;;;;;;;11.54;100.00;92850.97;2129610;27;20161;-68
2022/10/24 02:50:33;;;;;;;8.20;2.58;;;;;;;11.52;100.00;92850.66;2137623;27;20090;-70
2022/10/24 02:51:38;;;;;;;12.80;2.67;;;;;;;11.60;100.00;92847.34;2136401;27;20026;-68
2022/10/24 02:52:41;;;;;;;8.77;2.35;;;;;;;11.66;100.00;92852.91;2137202;27;20037;-68
2022/10/24 02:53:42;;;;;;;10.13;2.58;;;;;;;11.61;100.00;92848.09;2128741;27;20075;-68
2022/10/24 02:54:43;;;;;;;8.70;2.20;;;;;;;11.63;100.00;92845.72;2137550;27;20094;-68
2022/10/24 02:55:44;;;;;;;11.38;2.38;;;;;;;11.58;100.00;92848.94;2137552;27;20432;-68
2022/10/24 02:56:53;;;;;;;12.40;2.85;;;;;;;11.54;100.00;92842.94;2136529;27;20030;-68
2022/10/24 02:57:54;;;;;;;12.30;2.58;;;;;;;11.50;100.00;92835.03;2132607;27;20068;-68
2022/10/24 02:58:55;;;;;;;11.00;2.78;;;;;;;11.52;100.00;92831.94;2137589;27;20026;-68
2022/10/24 02:59:56;;;;;;;10.43;2.65;;;;;;;11.47;100.00;92833.22;2137378;27;20023;-68
2022/10/24 03:00:57;;;;;;;8.75;2.90;;;;;;;11.47;100.00;92827.84;2137479;27;20046;-68
2022/10/24 03:01:58;;;;;;;10.18;2.40;;;;;;;11.52;100.00;92821.97;2136302;27;20030;-68
2022/10/24 03:02:59;;;;;;;11.15;2.83;;;;;;;11.67;100.00;92824.19;2133817;27;20029;-68
2022/10/24 03:04:02;;;;;;;11.30;2.58;;;;;;;11.66;100.00;92817.34;2137711;27;20431;-68
2022/10/24 03:05:05;;;;;;;11.63;2.72;;;;;;;11.70;100.00;92799.25;2137669;27;20061;-71
2022/10/24 03:06:06;;;;;;;8.88;2.78;;;;;;;11.65;100.00;92805.91;2137536;27;20022;-68
2022/10/24 03:07:07;;;;;;;10.38;2.92;;;;;;;11.68;100.00;92797.00;2137082;27;20105;-71
2022/10/24 03:08:08;;;;;;;6.47;2.40;;;;;;;11.68;100.00;92782.88;2127739;27;20018;-67
2022/10/24 03:09:09;;;;;;;12.13;3.45;;;;;;;11.64;100.00;92795.63;2128540;27;20022;-70
2022/10/24 03:10:10;;;;;;;15.60;3.15;;;;;;;11.65;100.00;92797.88;2137492;27;20030;-67
2022/10/24 03:11:11;;;;;;;7.07;2.38;;;;;;;11.52;100.00;92807.84;2137564;27;20026;-68
2022/10/24 03:12:16;;;;;;;8.85;2.20;;;;;;;11.45;100.00;92808.78;2128929;27;20440;-68
2022/10/24 03:13:17;;;;;;;13.27;2.70;;;;;;;11.41;100.00;92807.38;2133207;27;20141;-68
2022/10/24 03:14:18;;;;;;;14.48;2.78;;;;;;;11.46;100.00;92812.22;2137477;27;20031;-68
2022/10/24 03:15:19;;;;;;;9.05;2.70;;;;;;;11.43;100.00;92816.50;2130264;27;20083;-67
2022/10/24 03:16:20;;;;;;;16.90;2.47;;;;;;;11.37;100.00;92807.53;2137404;27;20061;-68
2022/10/24 03:17:22;;;;;;;11.32;2.63;;;;;;;11.34;100.00;92809.13;2137358;27;20022;-68
2022/10/24 03:18:23;;;;;;;8.50;2.50;;;;;;;11.40;100.00;92806.66;2135245;27;20023;-67
2022/10/24 03:19:24;;;;;;;14.38;2.58;;;;;;;11.52;100.00;92805.91;2137281;27;20109;-68
2022/10/24 03:20:25;;;;;;;9.23;2.60;;;;;;;11.48;100.00;92813.28;2137430;27;20057;-70
2022/10/24 03:21:26;;;;;;;9.57;3.05;;;;;;;11.42;100.00;92814.25;2137495;27;20085;-68
2022/10/24 03:22:27;;;;;;;6.78;2.70;;;;;;;11.35;100.00;92820.56;2137371;27;20074;-67
2022/10/24 03:23:28;;;;;;;10.27;2.88;;;;;;;11.37;100.00;92814.78;2132093;27;20460;-68
2022/10/24 03:24:29;;;;;;;7.15;2.67;;;;;;;11.42;100.00;92820.38;2137383;27;20057;-68
2022/10/24 03:25:30;;;;;;;12.75;2.80;;;;;;;11.36;100.00;92824.72;2137323;27;20030;-67
2022/10/24 03:26:31;;;;;;;7.93;2.42;;;;;;;11.35;100.00;92820.56;2136808;27;20061;-68
2022/10/24 03:27:33;;;;;;;12.35;2.50;;;;;;;11.43;100.00;92835.25;2122406;27;20053;-67
2022/10/24 03:28:34;;;;;;;6.28;2.38;;;;;;;11.33;100.00;92836.31;2117934;27;20015;-67
2022/10/24 03:29:35;;;;;;;12.68;3.28;;;;;;;11.35;100.00;92839.28;2131476;27;20102;-68
2022/10/24 03:30:36;;;;;;;10.48;2.67;;;;;;;11.36;100.00;92835.44;2122134;27;20019;-67
2022/10/24 03:31:37;;;;;;;10.90;3.15;;;;;;;11.38;100.00;92845.72;2122355;27;20047;-71
2022/10/24 03:32:38;;;;;;;11.15;3.33;;;;;;;11.38;100.00;92843.81;2131413;27;20034;-68
2022/10/24 03:33:39;;;;;;;11.20;3.03;;;;;;;11.42;100.00;92852.47;2129669;27;20114;-68
2022/10/24 03:34:40;;;;;;;13.18;3.60;;;;;;;11.38;100.00;92845.72;2131580;27;20150;-69
2022/10/24 03:35:41;;;;;;;10.38;3.28;;;;;;;11.37;100.00;92852.25;2131470;27;20025;-68
2022/10/24 03:36:42;;;;;;;10.50;3.00;;;;;;;11.35;100.00;92853.41;2123198;27;20058;-68
2022/10/24 03:37:43;;;;;;;10.27;2.63;;;;;;;11.35;100.00;92855.34;2131626;27;20022;-67
2022/10/24 03:38:45;;;;;;;8.93;3.03;;;;;;;11.32;100.00;92856.94;2127823;27;20147;-68
2022/10/24 03:39:48;;;;;;;8.57;2.70;;;;;;;11.31;100.00;92854.69;2131478;27;20031;-68
2022/10/24 03:40:49;;;;;;;13.45;3.50;;;;;;;11.37;100.00;92857.59;2131566;27;20027;-68
2022/10/24 03:41:50;;;;;;;11.13;3.33;;;;;;;11.45;100.00;92856.97;2131572;27;20441;-68
2022/10/24 03:42:51;;;;;;;12.95;3.58;;;;;;;11.54;100.00;92849.03;2131544;27;20034;-68
2022/10/24 03:43:52;;;;;;;12.68;3.08;;;;;;;11.57;100.00;92844.78;2128228;27;20030;-68
2022/10/24 03:44:53;;;;;;;12.38;3.05;;;;;;;11.49;100.00;92830.09;2130000;27;20055;-67
2022/10/24 03:45:54;;;;;;;10.10;2.92;;;;;;;11.44;100.00;92833.31;2126516;27;20046;-68
2022/10/24 03:46:55;;;;;;;7.40;2.58;;;;;;;11.43;100.00;92827.22;2131538;27;20087;-68
2022/10/24 03:47:56;;;;;;;11.45;3.00;;;;;;;11.41;100.00;92826.88;2131492;27;20113;-68
2022/10/24 03:48:57;;;;;;;9.63;3.30;;;;;;;11.39;100.00;92841.88;2127509;27;20449;-68
2022/10/24 03:49:58;;;;;;;10.85;3.30;;;;;;;11.52;100.00;92843.38;2131406;27;20443;-68
2022/10/24 03:50:59;;;;;;;11.60;2.83;;;;;;;11.48;100.00;92840.06;2130817;27;20067;-67
2022/10/24 03:52:00;;;;;;;14.27;3.25;;;;;;;11.47;100.00;92838.56;2131493;27;20019;-68
2022/10/24 03:53:01;;;;;;;7.57;2.58;;;;;;;11.59;100.00;92840.50;2131149;27;20026;-70
2022/10/24 03:54:03;;;;;;;8.13;3.45;;;;;;;11.50;100.00;92843.06;2125214;27;20042;-68
2022/10/24 03:55:04;;;;;;;6.93;2.60;;;;;;;11.62;100.00;92849.59;2129053;27;20022;-69
2022/10/24 03:56:06;;;;;;;10.93;3.20;;;;;;;11.50;100.00;92853.78;2131249;27;20023;-69
2022/10/24 03:57:08;;;;;;;6.72;2.70;;;;;;;11.54;100.00;92857.06;2131451;27;20440;-69
2022/10/24 03:58:09;;;;;;;10.70;3.10;;;;;;;11.71;100.00;92849.69;2131253;27;20568;-68
2022/10/24 03:59:10;;;;;;;12.13;2.83;;;;;;;11.54;100.00;92867.03;2131241;27;20015;-69
2022/10/24 04:00:11;;;;;;;8.77;2.53;;;;;;;11.53;100.00;92860.94;2127268;27;20113;-68
2022/10/24 04:01:16;;;;;;;16.45;3.40;;;;;;;11.56;100.00;92867.38;2123056;27;20027;-68
2022/10/24 04:02:17;;;;;;;12.07;2.75;;;;;;;11.52;100.00;92878.16;2122359;27;20030;-68
2022/10/24 04:03:18;;;;;;;8.82;2.45;;;;;;;11.53;100.00;92887.69;2121936;27;20030;-69
2022/10/24 04:04:20;;;;;;;12.23;2.65;;;;;;;11.46;100.00;92889.84;2131264;27;20109;-68
2022/10/24 04:05:21;;;;;;;11.18;2.60;;;;;;;11.50;100.00;92887.78;2130533;27;20019;-67
2022/10/24 04:06:22;;;;;;;11.10;6.07;;;;;;;11.48;100.00;92898.19;2131192;27;20525;-70
2022/10/24 04:07:23;;;;;;;14.95;3.67;;;;;;;11.44;100.00;92898.28;2131312;27;20078;-69
2022/10/24 04:08:24;;;;;;;9.65;2.67;;;;;;;11.49;100.00;92899.69;2131125;27;20035;-69
2022/10/24 04:09:26;;;;;;;10.45;3.08;;;;;;;11.52;100.00;92896.91;2131155;27;20035;-68
2022/10/24 04:10:28;;;;;;;10.55;2.85;;;;;;;11.53;100.00;92900.34;2120357;27;20035;-69
2022/10/24 04:11:28;;;;;;;13.15;2.83;;;;;;;11.56;100.00;92889.53;2120112;27;20038;-68
2022/10/24 04:12:30;;;;;;;9.77;2.95;;;;;;;11.52;100.00;92878.16;2131341;27;20022;-69
2022/10/24 04:13:31;;;;;;;8.73;2.67;;;;;;;11.51;100.00;92870.59;2130477;27;20380;-68
2022/10/24 04:14:32;;;;;;;10.23;2.80;;;;;;;11.48;100.00;92869.50;2121661;27;20120;-70
2022/10/24 04:15:33;;;;;;;6.75;2.13;;;;;;;11.47;100.00;92888.66;2117999;27;20044;-70
2022/10/24 04:16:35;;;;;;;9.98;2.47;;;;;;;11.41;100.00;92882.31;2129868;27;20472;-69
2022/10/24 04:17:36;;;;;;;9.30;2.78;;;;;;;11.41;100.00;92871.63;2131336;27;20407;-69
2022/10/24 04:18:37;;;;;;;14.75;2.83;;;;;;;11.37;100.00;92865.63;2131383;27;20461;-69
2022/10/24 04:19:38;;;;;;;12.90;2.83;;;;;;;11.35;100.00;92866.81;2131361;27;20054;-69
2022/10/24 04:20:39;;;;;;;8.05;2.60;;;;;;;11.36;100.00;92872.91;2131375;27;20041;-71
2022/10/24 04:21:39;;;;;;;8.73;2.22;;;;;;;11.48;100.00;92872.16;2126972;27;20019;-68
2022/10/24 04:22:40;;;;;;;7.05;2.20;;;;;;;11.51;100.00;92867.91;2130976;27;20099;-70
2022/10/24 04:23:43;;;;;;;11.40;2.78;;;;;;;11.48;100.00;92855.38;2130710;27;20027;-68
2022/10/24 04:24:44;;;;;;;10.38;2.85;;;;;;;11.53;100.00;92855.56;2123333;27;20037;-69
2022/10/24 04:25:45;;;;;;;6.57;2.20;;;;;;;11.52;100.00;92858.69;2122038;27;20067;-71
2022/10/24 04:26:46;;;;;;;8.63;2.50;;;;;;;11.48;100.00;92866.81;2119034;27;20030;-70
2022/10/24 04:27:47;;;;;;;8.63;2.25;;;;;;;11.49;100.00;92862.97;2131201;27;20107;-68
2022/10/24 04:28:48;;;;;;;8.90;2.40;;;;;;;11.46;100.00;92858.47;2128677;27;20027;-68
2022/10/24 04:29:49;;;;;;;4.97;2.05;;;;;;;11.42;100.00;92865.13;2131083;27;20021;-68
2022/10/24 04:30:57;;;;;;;7.13;2.25;;;;;;;11.41;100.00;92858.25;2131075;27;20468;-70
2022/10/24 04:31:59;;;;;;;8.68;2.10;;;;;;;11.38;100.00;92856.44;2127367;27;20037;-71
2022/10/24 04:33:00;;;;;;;8.35;2.05;;;;;;;11.44;100.00;92860.81;2129074;27;20023;-68
2022/10/24 04:34:01;;;;;;;6.07;1.95;;;;;;;11.44;100.00;92858.16;2130848;27;20031;-70
2022/10/24 04:35:04;;;;;;;4.43;1.95;;;;;;;11.49;100.00;92851.50;2130717;27;20038;-69
2022/10/24 04:36:05;;;;;;;7.20;2.28;;;;;;;11.47;100.00;92859.22;2130868;27;20015;-69
2022/10/24 04:37:06;;;;;;;8.80;2.40;;;;;;;11.48;100.00;92850.75;2128091;27;20463;-68
2022/10/24 04:38:07;;;;;;;5.55;2.03;;;;;;;11.47;100.00;92838.56;2130350;27;20026;-72
2022/10/24 04:39:08;;;;;;;10.63;2.25;;;;;;;11.50;100.00;92826.22;2130015;27;20452;-69
2022/10/24 04:40:09;;;;;;;10.57;4.20;;;;;;;11.51;100.00;92822.41;2131075;27;20034;-68
2022/10/24 04:41:10;;;;;;;8.85;3.40;;;;;;;11.49;100.00;92824.75;2131094;27;20030;-72
2022/10/24 04:42:11;;;;;;;9.73;3.00;;;;;;;11.51;100.00;92827.75;2128671;27;20066;-68
2022/10/24 04:43:13;;;;;;;7.00;2.45;;;;;;;11.58;100.00;92814.13;2122260;27;20106;-69
2022/10/24 04:44:13;;;;;;;5.95;2.38;;;;;;;11.58;100.00;92814.13;2131021;27;20470;-70
2022/10/24 04:45:15;;;;;;;8.35;3.65;;;;;;;11.57;100.00;92812.66;2123886;27;20030;-68
2022/10/24 04:46:16;;;;;;;8.85;3.22;;;;;;;11.51;100.00;92822.41;2121652;27;20430;-69
2022/10/24 04:47:17;;;;;;;10.73;2.85;;;;;;;11.55;100.00;92807.72;2121066;27;20031;-69
2022/10/24 04:48:18;;;;;;;7.38;2.60;;;;;;;11.43;100.00;92813.81;2127378;27;20026;-69
2022/10/24 04:49:19;;;;;;;6.78;2.20;;;;;;;11.44;100.00;92804.63;2130311;27;20106;-68
2022/10/24 04:50:20;;;;;;;9.40;2.83;;;;;;;11.41;100.00;92807.38;2130265;27;20470;-69
2022/10/24 04:51:21;;;;;;;8.40;2.90;;;;;;;11.47;100.00;92806.44;2130390;27;20023;-69
2022/10/24 04:52:22;;;;;;;10.38;2.78;;;;;;;11.36;100.00;92806.00;2129750;27;20035;-68
2022/10/24 04:53:23;;;;;;;7.00;2.58;;;;;;;11.40;100.00;92805.91;2127322;27;20030;-68
2022/10/24 04:54:24;;;;;;;12.20;2.92;;;;;;;11.39;100.00;92805.16;2130343;27;20075;-68
2022/10/24 04:55:25;;;;;;;8.98;3.40;;;;;;;11.35;100.00;92807.94;2130411;27;20031;-68
2022/10/24 04:56:26;;;;;;;13.27;2.88;;;;;;;11.31;100.00;92801.94;2130346;27;20034;-67
2022/10/24 04:57:27;;;;;;;12.15;3.30;;;;;;;11.40;100.00;92811.25;2130547;27;20105;-71
2022/10/24 04:58:28;;;;;;;7.63;2.17;;;;;;;11.57;100.00;92808.03;2125370;27;20031;-70
2022/10/24 04:59:29;;;;;;;11.38;2.70;;;;;;;11.43;100.00;92805.78;2130602;27;20026;-69
2022/10/24 05:00:30;;;;;;;8.38;2.95;;;;;;;11.58;100.00;92814.88;2130341;27;20097;-68